sensor_id;sensor_type;location;lat;lon;timestamp;pressure;altitude;pressure_sealevel;temperature;humidity
15884;BME280;8040;50.254;10.960;2023-04-06T00:00:33;98518.28;;;2.74;54.83
15884;BME280;8040;50.254;10.960;2023-04-06T00:02:59;98505.47;;;2.76;54.86
15884;BME280;8040;50.254;10.960;2023-04-06T00:05:24;98558.25;;;3.08;55.15
15884;BME280;8040;50.254;10.960;2023-04-06T00:07:50;98523.66;;;2.90;55.16
15884;BME280;8040;50.254;10.960;2023-04-06T00:10:16;98532.66;;;2.84;54.93
15884;BME280;8040;50.254;10.960;2023-04-06T00:12:42;98529.56;;;2.92;54.50
15884;BME280;8040;50.254;10.960;2023-04-06T00:15:08;98466.41;;;2.47;54.84
15884;BME280;8040;50.254;10.960;2023-04-06T00:17:33;98550.25;;;2.97;55.23
15884;BME280;8040;50.254;10.960;2023-04-06T00:19:59;98513.97;;;2.73;55.19
15884;BME280;8040;50.254;10.960;2023-04-06T00:22:25;98482.41;;;2.58;55.23
15884;BME280;8040;50.254;10.960;2023-04-06T00:24:50;98496.06;;;2.57;55.24
15884;BME280;8040;50.254;10.960;2023-04-06T00:27:16;98472.97;;;2.39;54.84
15884;BME280;8040;50.254;10.960;2023-04-06T00:29:41;98547.19;;;2.88;55.32
15884;BME280;8040;50.254;10.960;2023-04-06T00:32:07;98522.19;;;2.66;55.39
15884;BME280;8040;50.254;10.960;2023-04-06T00:34:32;98515.53;;;2.69;55.84
15884;BME280;8040;50.254;10.960;2023-04-06T00:36:58;98549.28;;;2.86;55.54
15884;BME280;8040;50.254;10.960;2023-04-06T00:39:23;98534.34;;;2.74;55.31
15884;BME280;8040;50.254;10.960;2023-04-06T00:41:51;98548.66;;;2.79;55.53
15884;BME280;8040;50.254;10.960;2023-04-06T00:44:16;98528.34;;;2.67;55.35
15884;BME280;8040;50.254;10.960;2023-04-06T00:46:42;98523.72;;;2.62;55.42
15884;BME280;8040;50.254;10.960;2023-04-06T00:49:07;98531.19;;;2.60;56.00
15884;BME280;8040;50.254;10.960;2023-04-06T00:51:33;98444.72;;;2.15;56.07
15884;BME280;8040;50.254;10.960;2023-04-06T00:53:58;98538.72;;;2.63;55.89
15884;BME280;8040;50.254;10.960;2023-04-06T00:56:24;98541.03;;;2.71;56.21
15884;BME280;8040;50.254;10.960;2023-04-06T00:58:51;98513.41;;;2.54;55.96
15884;BME280;8040;50.254;10.960;2023-04-06T01:01:17;98492.53;;;2.40;56.12
15884;BME280;8040;50.254;10.960;2023-04-06T01:03:46;98541.72;;;2.67;56.14
15884;BME280;8040;50.254;10.960;2023-04-06T01:06:14;98485.13;;;2.30;56.11
15884;BME280;8040;50.254;10.960;2023-04-06T01:08:40;98446.50;;;2.10;56.14
15884;BME280;8040;50.254;10.960;2023-04-06T01:11:05;98486.91;;;2.25;56.29
15884;BME280;8040;50.254;10.960;2023-04-06T01:13:30;98533.66;;;2.50;56.13
15884;BME280;8040;50.254;10.960;2023-04-06T01:15:56;98535.94;;;2.58;56.39
15884;BME280;8040;50.254;10.960;2023-04-06T01:18:29;98514.84;;;2.45;56.45
15884;BME280;8040;50.254;10.960;2023-04-06T01:20:55;98506.72;;;2.40;56.49
15884;BME280;8040;50.254;10.960;2023-04-06T01:23:20;98512.03;;;2.52;56.68
15884;BME280;8040;50.254;10.960;2023-04-06T01:25:46;98521.22;;;2.56;56.49
15884;BME280;8040;50.254;10.960;2023-04-06T01:28:11;98462.56;;;2.10;56.64
15884;BME280;8040;50.254;10.960;2023-04-06T01:30:37;98530.19;;;2.50;56.76
15884;BME280;8040;50.254;10.960;2023-04-06T01:33:02;98497.38;;;2.26;56.68
15884;BME280;8040;50.254;10.960;2023-04-06T01:35:28;98524.59;;;2.51;56.96
15884;BME280;8040;50.254;10.960;2023-04-06T01:37:53;98480.66;;;2.19;57.23
15884;BME280;8040;50.254;10.960;2023-04-06T01:40:19;98499.81;;;2.28;56.41
15884;BME280;8040;50.254;10.960;2023-04-06T01:42:46;98469.69;;;2.04;56.56
15884;BME280;8040;50.254;10.960;2023-04-06T01:45:11;98521.88;;;2.35;56.75
15884;BME280;8040;50.254;10.960;2023-04-06T01:47:36;98516.63;;;2.40;56.69
15884;BME280;8040;50.254;10.960;2023-04-06T01:50:02;98440.38;;;1.81;57.13
15884;BME280;8040;50.254;10.960;2023-04-06T01:52:32;98468.19;;;1.97;57.18
15884;BME280;8040;50.254;10.960;2023-04-06T01:54:58;98441.88;;;1.77;57.14
15884;BME280;8040;50.254;10.960;2023-04-06T01:57:24;98484.28;;;2.13;57.34
15884;BME280;8040;50.254;10.960;2023-04-06T01:59:51;98521.16;;;2.39;57.45
15884;BME280;8040;50.254;10.960;2023-04-06T02:02:16;98500.28;;;2.25;57.37
15884;BME280;8040;50.254;10.960;2023-04-06T02:04:42;98477.56;;;2.11;57.32
15884;BME280;8040;50.254;10.960;2023-04-06T02:07:07;98463.66;;;1.97;57.17
15884;BME280;8040;50.254;10.960;2023-04-06T02:09:33;98474.78;;;2.06;57.25
15884;BME280;8040;50.254;10.960;2023-04-06T02:11:58;98520.88;;;2.24;57.73
15884;BME280;8040;50.254;10.960;2023-04-06T02:14:25;98491.97;;;2.10;57.70
15884;BME280;8040;50.254;10.960;2023-04-06T02:16:51;98489.53;;;2.08;57.46
15884;BME280;8040;50.254;10.960;2023-04-06T02:19:16;98449.91;;;1.77;57.43
15884;BME280;8040;50.254;10.960;2023-04-06T02:21:42;98446.28;;;1.83;57.38
15884;BME280;8040;50.254;10.960;2023-04-06T02:24:07;98500.75;;;2.05;57.49
15884;BME280;8040;50.254;10.960;2023-04-06T02:26:33;98505.81;;;2.07;57.83
15884;BME280;8040;50.254;10.960;2023-04-06T02:28:58;98495.13;;;2.07;57.92
15884;BME280;8040;50.254;10.960;2023-04-06T02:31:24;98457.81;;;1.84;57.75
15884;BME280;8040;50.254;10.960;2023-04-06T02:33:49;98503.75;;;2.09;57.52
15884;BME280;8040;50.254;10.960;2023-04-06T02:36:14;98492.94;;;2.04;57.27
15884;BME280;8040;50.254;10.960;2023-04-06T02:38:40;98515.25;;;2.09;57.41
15884;BME280;8040;50.254;10.960;2023-04-06T02:41:06;98457.47;;;1.80;57.45
15884;BME280;8040;50.254;10.960;2023-04-06T02:43:32;98507.72;;;2.06;57.70
15884;BME280;8040;50.254;10.960;2023-04-06T02:45:58;98496.47;;;1.93;58.22
15884;BME280;8040;50.254;10.960;2023-04-06T02:48:25;98512.22;;;2.06;58.14
15884;BME280;8040;50.254;10.960;2023-04-06T02:50:50;98508.16;;;2.03;58.00
15884;BME280;8040;50.254;10.960;2023-04-06T02:53:16;98499.00;;;1.99;58.23
15884;BME280;8040;50.254;10.960;2023-04-06T02:55:41;98499.13;;;2.04;58.06
15884;BME280;8040;50.254;10.960;2023-04-06T02:58:07;98513.00;;;2.18;58.21
15884;BME280;8040;50.254;10.960;2023-04-06T03:00:32;98456.06;;;1.78;57.92
15884;BME280;8040;50.254;10.960;2023-04-06T03:02:58;98452.38;;;1.67;57.81
15884;BME280;8040;50.254;10.960;2023-04-06T03:05:23;98502.81;;;2.03;57.84
15884;BME280;8040;50.254;10.960;2023-04-06T03:07:48;98488.44;;;1.93;58.21
15884;BME280;8040;50.254;10.960;2023-04-06T03:10:14;98515.09;;;2.16;58.33
15884;BME280;8040;50.254;10.960;2023-04-06T03:12:39;98481.34;;;1.98;57.71
15884;BME280;8040;50.254;10.960;2023-04-06T03:15:07;98459.75;;;1.88;57.67
15884;BME280;8040;50.254;10.960;2023-04-06T03:17:33;98436.94;;;1.69;57.63
15884;BME280;8040;50.254;10.960;2023-04-06T03:19:58;98462.31;;;1.83;57.79
15884;BME280;8040;50.254;10.960;2023-04-06T03:22:24;98475.03;;;1.76;58.13
15884;BME280;8040;50.254;10.960;2023-04-06T03:24:49;98509.88;;;2.09;58.03
15884;BME280;8040;50.254;10.960;2023-04-06T03:27:15;98503.09;;;2.02;57.82
15884;BME280;8040;50.254;10.960;2023-04-06T03:29:40;98513.06;;;2.06;58.09
15884;BME280;8040;50.254;10.960;2023-04-06T03:32:06;98441.00;;;1.72;57.89
15884;BME280;8040;50.254;10.960;2023-04-06T03:34:31;98478.81;;;1.92;57.97
15884;BME280;8040;50.254;10.960;2023-04-06T03:36:57;98462.13;;;1.73;58.08
15884;BME280;8040;50.254;10.960;2023-04-06T03:39:22;98483.25;;;1.86;58.10
15884;BME280;8040;50.254;10.960;2023-04-06T03:41:48;98499.47;;;1.96;58.13
15884;BME280;8040;50.254;10.960;2023-04-06T03:44:13;98490.34;;;1.81;58.16
15884;BME280;8040;50.254;10.960;2023-04-06T03:46:39;98448.03;;;1.50;58.47
15884;BME280;8040;50.254;10.960;2023-04-06T03:49:04;98450.09;;;1.59;58.13
15884;BME280;8040;50.254;10.960;2023-04-06T03:51:30;98459.16;;;1.58;57.93
15884;BME280;8040;50.254;10.960;2023-04-06T03:53:55;98441.97;;;1.54;58.12
15884;BME280;8040;50.254;10.960;2023-04-06T03:56:21;98486.78;;;1.75;58.07
15884;BME280;8040;50.254;10.960;2023-04-06T03:58:46;98460.66;;;1.54;58.05
15884;BME280;8040;50.254;10.960;2023-04-06T04:01:16;98464.41;;;1.53;58.45
15884;BME280;8040;50.254;10.960;2023-04-06T04:03:42;98450.91;;;1.48;58.52
15884;BME280;8040;50.254;10.960;2023-04-06T04:06:07;98478.75;;;1.64;58.29
15884;BME280;8040;50.254;10.960;2023-04-06T04:08:33;98488.91;;;1.62;58.65
15884;BME280;8040;50.254;10.960;2023-04-06T04:10:58;98501.88;;;1.70;58.17
15884;BME280;8040;50.254;10.960;2023-04-06T04:13:24;98497.75;;;1.62;58.45
15884;BME280;8040;50.254;10.960;2023-04-06T04:15:50;98502.59;;;1.65;58.65
15884;BME280;8040;50.254;10.960;2023-04-06T04:18:15;98486.38;;;1.55;58.38
15884;BME280;8040;50.254;10.960;2023-04-06T04:20:41;98502.16;;;1.68;58.39
15884;BME280;8040;50.254;10.960;2023-04-06T04:23:06;98519.56;;;1.71;58.07
15884;BME280;8040;50.254;10.960;2023-04-06T04:25:32;98520.81;;;1.80;58.20
15884;BME280;8040;50.254;10.960;2023-04-06T04:27:57;98506.44;;;1.69;57.90
15884;BME280;8040;50.254;10.960;2023-04-06T04:30:23;98534.84;;;1.87;58.43
15884;BME280;8040;50.254;10.960;2023-04-06T04:32:48;98520.38;;;1.71;58.32
15884;BME280;8040;50.254;10.960;2023-04-06T04:35:14;98540.25;;;1.75;58.76
15884;BME280;8040;50.254;10.960;2023-04-06T04:37:40;98543.13;;;1.85;58.31
15884;BME280;8040;50.254;10.960;2023-04-06T04:40:06;98436.69;;;1.31;58.24
15884;BME280;8040;50.254;10.960;2023-04-06T04:42:32;98483.53;;;1.62;58.04
15884;BME280;8040;50.254;10.960;2023-04-06T04:44:57;98530.56;;;1.86;58.19
15884;BME280;8040;50.254;10.960;2023-04-06T04:47:23;98498.06;;;1.66;58.28
15884;BME280;8040;50.254;10.960;2023-04-06T04:49:48;98506.22;;;1.71;58.37
15884;BME280;8040;50.254;10.960;2023-04-06T04:52:14;98531.84;;;1.83;58.58
15884;BME280;8040;50.254;10.960;2023-04-06T04:54:39;98467.34;;;1.40;58.18
15884;BME280;8040;50.254;10.960;2023-04-06T04:57:06;98524.53;;;1.79;58.12
15884;BME280;8040;50.254;10.960;2023-04-06T04:59:31;98486.59;;;1.54;58.29
15884;BME280;8040;50.254;10.960;2023-04-06T05:01:57;98464.28;;;1.48;58.44
15884;BME280;8040;50.254;10.960;2023-04-06T05:04:22;98457.47;;;1.41;57.82
15884;BME280;8040;50.254;10.960;2023-04-06T05:06:48;98546.34;;;1.99;58.18
15884;BME280;8040;50.254;10.960;2023-04-06T05:09:14;98544.59;;;2.04;57.90
15884;BME280;8040;50.254;10.960;2023-04-06T05:11:40;98525.88;;;1.93;57.80
15884;BME280;8040;50.254;10.960;2023-04-06T05:14:05;98536.47;;;1.99;57.87
15884;BME280;8040;50.254;10.960;2023-04-06T05:16:33;98432.81;;;1.50;57.43
15884;BME280;8040;50.254;10.960;2023-04-06T05:18:59;98536.38;;;2.22;57.50
15884;BME280;8040;50.254;10.960;2023-04-06T05:21:24;98465.94;;;1.77;57.21
15884;BME280;8040;50.254;10.960;2023-04-06T05:23:51;98534.06;;;2.42;57.38
15884;BME280;8040;50.254;10.960;2023-04-06T05:26:16;98504.16;;;2.95;56.59
15884;BME280;8040;50.254;10.960;2023-04-06T05:28:42;98517.03;;;3.90;54.76
15884;BME280;8040;50.254;10.960;2023-04-06T05:31:09;98498.75;;;4.67;52.43
15884;BME280;8040;50.254;10.960;2023-04-06T05:33:34;98527.81;;;5.38;49.99
15884;BME280;8040;50.254;10.960;2023-04-06T05:36:00;98517.66;;;5.96;48.66
15884;BME280;8040;50.254;10.960;2023-04-06T05:38:26;98551.28;;;6.65;47.01
15884;BME280;8040;50.254;10.960;2023-04-06T05:40:51;98511.41;;;6.87;45.67
15884;BME280;8040;50.254;10.960;2023-04-06T05:43:17;98523.53;;;7.24;44.63
15884;BME280;8040;50.254;10.960;2023-04-06T05:45:44;98543.69;;;7.77;43.57
15884;BME280;8040;50.254;10.960;2023-04-06T05:48:10;98542.78;;;8.01;42.99
15884;BME280;8040;50.254;10.960;2023-04-06T05:50:36;98493.34;;;8.06;41.99
15884;BME280;8040;50.254;10.960;2023-04-06T05:53:01;98466.63;;;8.04;41.89
15884;BME280;8040;50.254;10.960;2023-04-06T05:55:27;98522.47;;;8.24;41.60
15884;BME280;8040;50.254;10.960;2023-04-06T05:57:53;98538.66;;;8.19;41.60
15884;BME280;8040;50.254;10.960;2023-04-06T06:00:19;98527.97;;;7.94;41.59
15884;BME280;8040;50.254;10.960;2023-04-06T06:02:44;98539.41;;;7.71;41.44
15884;BME280;8040;50.254;10.960;2023-04-06T06:05:10;98532.41;;;7.45;41.38
15884;BME280;8040;50.254;10.960;2023-04-06T06:07:36;98499.28;;;6.90;41.37
15884;BME280;8040;50.254;10.960;2023-04-06T06:10:02;98500.31;;;6.54;42.21
15884;BME280;8040;50.254;10.960;2023-04-06T06:12:27;98566.84;;;6.38;43.02
15884;BME280;8040;50.254;10.960;2023-04-06T06:14:54;98558.34;;;6.00;44.09
15884;BME280;8040;50.254;10.960;2023-04-06T06:17:20;98556.25;;;5.65;44.75
15884;BME280;8040;50.254;10.960;2023-04-06T06:19:48;98548.34;;;5.54;45.46
15884;BME280;8040;50.254;10.960;2023-04-06T06:22:14;98504.19;;;5.03;45.17
15884;BME280;8040;50.254;10.960;2023-04-06T06:24:39;98546.28;;;5.24;46.34
15884;BME280;8040;50.254;10.960;2023-04-06T06:27:05;98559.28;;;5.37;47.46
15884;BME280;8040;50.254;10.960;2023-04-06T06:29:30;98516.84;;;5.08;47.08
15884;BME280;8040;50.254;10.960;2023-04-06T06:31:56;98482.78;;;4.82;47.14
15884;BME280;8040;50.254;10.960;2023-04-06T06:34:21;98566.81;;;5.35;47.06
15884;BME280;8040;50.254;10.960;2023-04-06T06:36:47;98547.78;;;5.10;47.29
15884;BME280;8040;50.254;10.960;2023-04-06T06:39:12;98547.25;;;5.13;47.10
15884;BME280;8040;50.254;10.960;2023-04-06T06:41:38;98544.56;;;5.13;47.33
15884;BME280;8040;50.254;10.960;2023-04-06T06:44:03;98561.38;;;5.30;47.06
15884;BME280;8040;50.254;10.960;2023-04-06T06:46:28;98496.53;;;4.85;46.59
15884;BME280;8040;50.254;10.960;2023-04-06T06:48:54;98531.63;;;5.05;45.92
15884;BME280;8040;50.254;10.960;2023-04-06T06:51:20;98563.19;;;5.20;46.37
15884;BME280;8040;50.254;10.960;2023-04-06T06:53:45;98532.25;;;5.17;46.24
15884;BME280;8040;50.254;10.960;2023-04-06T06:56:11;98509.00;;;5.01;46.38
15884;BME280;8040;50.254;10.960;2023-04-06T06:58:37;98564.41;;;5.39;46.45
15884;BME280;8040;50.254;10.960;2023-04-06T07:01:03;98521.44;;;5.12;46.46
15884;BME280;8040;50.254;10.960;2023-04-06T07:03:30;98563.56;;;5.33;45.44
15884;BME280;8040;50.254;10.960;2023-04-06T07:05:55;98514.31;;;4.96;45.57
15884;BME280;8040;50.254;10.960;2023-04-06T07:08:23;98543.53;;;5.19;45.89
15884;BME280;8040;50.254;10.960;2023-04-06T07:10:50;98529.06;;;5.25;46.30
15884;BME280;8040;50.254;10.960;2023-04-06T07:13:18;98500.22;;;5.16;46.18
15884;BME280;8040;50.254;10.960;2023-04-06T07:15:47;98534.06;;;5.48;46.31
15884;BME280;8040;50.254;10.960;2023-04-06T07:18:12;98548.66;;;5.62;45.95
15884;BME280;8040;50.254;10.960;2023-04-06T07:20:38;98534.91;;;5.54;45.22
15884;BME280;8040;50.254;10.960;2023-04-06T07:23:04;98520.94;;;5.57;45.69
15884;BME280;8040;50.254;10.960;2023-04-06T07:25:29;98557.97;;;5.81;45.48
15884;BME280;8040;50.254;10.960;2023-04-06T07:27:55;98519.63;;;5.64;45.31
15884;BME280;8040;50.254;10.960;2023-04-06T07:30:21;98550.47;;;5.93;45.20
15884;BME280;8040;50.254;10.960;2023-04-06T07:32:47;98555.91;;;6.03;45.26
15884;BME280;8040;50.254;10.960;2023-04-06T07:35:14;98529.50;;;5.95;44.98
15884;BME280;8040;50.254;10.960;2023-04-06T07:37:39;98517.38;;;5.93;44.67
15884;BME280;8040;50.254;10.960;2023-04-06T07:40:05;98565.16;;;6.22;44.19
15884;BME280;8040;50.254;10.960;2023-04-06T07:42:31;98544.38;;;6.13;43.99
15884;BME280;8040;50.254;10.960;2023-04-06T07:44:58;98538.91;;;5.93;42.58
15884;BME280;8040;50.254;10.960;2023-04-06T07:47:23;98549.81;;;6.23;43.49
15884;BME280;8040;50.254;10.960;2023-04-06T07:49:49;98530.69;;;6.19;43.76
15884;BME280;8040;50.254;10.960;2023-04-06T07:52:15;98529.03;;;6.18;43.35
15884;BME280;8040;50.254;10.960;2023-04-06T07:54:40;98548.19;;;6.27;43.50
15884;BME280;8040;50.254;10.960;2023-04-06T07:57:17;98510.72;;;6.15;43.47
15884;BME280;8040;50.254;10.960;2023-04-06T07:59:49;98532.34;;;6.40;43.90
15884;BME280;8040;50.254;10.960;2023-04-06T08:02:39;98534.00;;;6.51;43.23
15884;BME280;8040;50.254;10.960;2023-04-06T08:05:08;98519.69;;;6.36;42.40
15884;BME280;8040;50.254;10.960;2023-04-06T08:07:40;98504.34;;;6.41;43.04
15884;BME280;8040;50.254;10.960;2023-04-06T08:10:08;98551.28;;;6.70;42.14
15884;BME280;8040;50.254;10.960;2023-04-06T08:12:34;98505.72;;;6.54;42.24
15884;BME280;8040;50.254;10.960;2023-04-06T08:15:00;98562.91;;;6.86;41.63
15884;BME280;8040;50.254;10.960;2023-04-06T08:17:25;98530.28;;;6.82;41.63
15884;BME280;8040;50.254;10.960;2023-04-06T08:19:52;98545.66;;;7.02;41.38
15884;BME280;8040;50.254;10.960;2023-04-06T08:22:18;98528.94;;;6.95;41.19
15884;BME280;8040;50.254;10.960;2023-04-06T08:24:43;98502.22;;;6.78;41.28
15884;BME280;8040;50.254;10.960;2023-04-06T08:27:08;98551.56;;;7.18;41.05
15884;BME280;8040;50.254;10.960;2023-04-06T08:29:35;98550.22;;;7.21;41.13
15884;BME280;8040;50.254;10.960;2023-04-06T08:32:00;98515.72;;;7.03;40.95
15884;BME280;8040;50.254;10.960;2023-04-06T08:34:30;98477.97;;;6.93;40.31
15884;BME280;8040;50.254;10.960;2023-04-06T08:36:55;98538.63;;;7.35;40.76
15884;BME280;8040;50.254;10.960;2023-04-06T08:39:21;98505.47;;;7.20;40.81
15884;BME280;8040;50.254;10.960;2023-04-06T08:41:52;98516.50;;;7.33;40.97
15884;BME280;8040;50.254;10.960;2023-04-06T08:44:18;98480.09;;;7.31;40.83
15884;BME280;8040;50.254;10.960;2023-04-06T08:46:47;98524.00;;;7.66;40.82
15884;BME280;8040;50.254;10.960;2023-04-06T08:49:13;98421.03;;;7.10;40.23
15884;BME280;8040;50.254;10.960;2023-04-06T08:51:39;98529.66;;;7.70;39.96
15884;BME280;8040;50.254;10.960;2023-04-06T08:54:05;98434.78;;;7.13;39.65
15884;BME280;8040;50.254;10.960;2023-04-06T08:56:31;98547.44;;;7.91;40.08
15884;BME280;8040;50.254;10.960;2023-04-06T08:58:57;98513.22;;;7.61;40.29
15884;BME280;8040;50.254;10.960;2023-04-06T09:01:26;98512.66;;;7.64;40.14
15884;BME280;8040;50.254;10.960;2023-04-06T09:03:57;98465.19;;;7.53;40.01
15884;BME280;8040;50.254;10.960;2023-04-06T09:06:25;98544.13;;;8.14;39.89
15884;BME280;8040;50.254;10.960;2023-04-06T09:08:56;98524.13;;;8.15;39.51
15884;BME280;8040;50.254;10.960;2023-04-06T09:11:22;98508.19;;;8.08;39.42
15884;BME280;8040;50.254;10.960;2023-04-06T09:16:42;98529.44;;;8.35;39.22
15884;BME280;8040;50.254;10.960;2023-04-06T09:19:26;98536.69;;;8.44;38.44
15884;BME280;8040;50.254;10.960;2023-04-06T09:22:10;98518.13;;;8.33;38.27
15884;BME280;8040;50.254;10.960;2023-04-06T09:24:48;98494.13;;;8.16;38.36
15884;BME280;8040;50.254;10.960;2023-04-06T09:27:14;98517.53;;;8.41;38.61
15884;BME280;8040;50.254;10.960;2023-04-06T09:29:44;98505.31;;;8.48;38.66
15884;BME280;8040;50.254;10.960;2023-04-06T09:32:11;98500.38;;;8.60;38.70
15884;BME280;8040;50.254;10.960;2023-04-06T09:34:38;98487.41;;;8.57;37.31
15884;BME280;8040;50.254;10.960;2023-04-06T09:37:17;98533.41;;;8.91;38.21
15884;BME280;8040;50.254;10.960;2023-04-06T09:39:46;98524.03;;;8.83;37.25
15884;BME280;8040;50.254;10.960;2023-04-06T09:42:24;98495.56;;;8.86;37.49
15884;BME280;8040;50.254;10.960;2023-04-06T09:44:51;98527.88;;;9.11;37.71
15884;BME280;8040;50.254;10.960;2023-04-06T09:47:18;98517.31;;;9.09;37.19
15884;BME280;8040;50.254;10.960;2023-04-06T09:49:46;98497.66;;;8.99;36.44
15884;BME280;8040;50.254;10.960;2023-04-06T09:52:13;98486.50;;;9.05;36.88
15884;BME280;8040;50.254;10.960;2023-04-06T09:54:40;98477.53;;;9.10;36.37
15884;BME280;8040;50.254;10.960;2023-04-06T09:57:25;98426.03;;;8.91;35.40
15884;BME280;8040;50.254;10.960;2023-04-06T10:00:04;98505.88;;;9.46;34.57
15884;BME280;8040;50.254;10.960;2023-04-06T10:03:14;98504.00;;;9.70;35.27
15884;BME280;8040;50.254;10.960;2023-04-06T10:05:46;98446.44;;;9.36;34.77
15884;BME280;8040;50.254;10.960;2023-04-06T10:08:16;98512.25;;;9.83;34.81
15884;BME280;8040;50.254;10.960;2023-04-06T10:10:42;98502.75;;;9.86;34.60
15884;BME280;8040;50.254;10.960;2023-04-06T10:13:09;98445.34;;;9.60;34.56
15884;BME280;8040;50.254;10.960;2023-04-06T10:15:37;98477.50;;;9.90;33.53
15884;BME280;8040;50.254;10.960;2023-04-06T10:18:03;98464.78;;;9.91;33.44
15884;BME280;8040;50.254;10.960;2023-04-06T10:23:30;98448.50;;;10.14;32.89
15884;BME280;8040;50.254;10.960;2023-04-06T10:26:19;98474.00;;;10.32;32.04
15884;BME280;8040;50.254;10.960;2023-04-06T10:28:47;98443.97;;;10.28;32.19
15884;BME280;8040;50.254;10.960;2023-04-06T10:31:13;98457.59;;;10.42;32.10
15884;BME280;8040;50.254;10.960;2023-04-06T10:33:38;98416.25;;;10.13;31.72
15884;BME280;8040;50.254;10.960;2023-04-06T10:36:22;98426.47;;;10.21;32.90
15884;BME280;8040;50.254;10.960;2023-04-06T10:38:55;98404.69;;;10.07;32.05
15884;BME280;8040;50.254;10.960;2023-04-06T10:41:22;98444.41;;;10.17;30.75
15884;BME280;8040;50.254;10.960;2023-04-06T10:43:55;98450.66;;;10.17;30.43
15884;BME280;8040;50.254;10.960;2023-04-06T10:46:29;98427.31;;;10.16;30.31
15884;BME280;8040;50.254;10.960;2023-04-06T10:48:55;98430.06;;;10.35;31.71
15884;BME280;8040;50.254;10.960;2023-04-06T10:51:25;98427.28;;;10.40;32.27
15884;BME280;8040;50.254;10.960;2023-04-06T10:53:54;98428.94;;;10.54;31.97
15884;BME280;8040;50.254;10.960;2023-04-06T10:56:23;98459.56;;;10.73;31.79
15884;BME280;8040;50.254;10.960;2023-04-06T10:58:54;98378.81;;;10.33;31.61
15884;BME280;8040;50.254;10.960;2023-04-06T11:01:22;98392.53;;;10.42;31.00
15884;BME280;8040;50.254;10.960;2023-04-06T11:03:54;98427.38;;;10.67;31.28
15884;BME280;8040;50.254;10.960;2023-04-06T11:06:23;98442.88;;;10.48;30.12
15884;BME280;8040;50.254;10.960;2023-04-06T11:08:50;98435.75;;;10.52;31.47
15884;BME280;8040;50.254;10.960;2023-04-06T11:11:18;98408.78;;;10.42;31.49
15884;BME280;8040;50.254;10.960;2023-04-06T11:16:22;98375.97;;;10.25;31.73
15884;BME280;8040;50.254;10.960;2023-04-06T11:18:52;98428.50;;;10.66;31.98
15884;BME280;8040;50.254;10.960;2023-04-06T11:21:19;98381.09;;;10.45;31.61
15884;BME280;8040;50.254;10.960;2023-04-06T11:23:45;98413.53;;;10.68;30.95
15884;BME280;8040;50.254;10.960;2023-04-06T11:26:14;98412.72;;;10.68;32.06
15884;BME280;8040;50.254;10.960;2023-04-06T11:28:41;98396.97;;;10.70;31.78
15884;BME280;8040;50.254;10.960;2023-04-06T11:31:09;98380.84;;;10.41;30.92
15884;BME280;8040;50.254;10.960;2023-04-06T11:33:38;98378.97;;;10.42;31.40
15884;BME280;8040;50.254;10.960;2023-04-06T11:36:04;98381.75;;;10.55;31.40
15884;BME280;8040;50.254;10.960;2023-04-06T11:38:30;98434.75;;;10.80;31.36
15884;BME280;8040;50.254;10.960;2023-04-06T11:40:56;98416.19;;;10.87;31.74
15884;BME280;8040;50.254;10.960;2023-04-06T11:43:31;98353.03;;;10.68;32.12
15884;BME280;8040;50.254;10.960;2023-04-06T11:46:01;98396.53;;;11.08;31.58
15884;BME280;8040;50.254;10.960;2023-04-06T11:48:28;98406.44;;;11.18;31.31
15884;BME280;8040;50.254;10.960;2023-04-06T11:50:58;98401.41;;;11.25;31.32
15884;BME280;8040;50.254;10.960;2023-04-06T11:53:28;98408.47;;;11.26;30.73
15884;BME280;8040;50.254;10.960;2023-04-06T11:55:55;98340.44;;;11.04;31.07
15884;BME280;8040;50.254;10.960;2023-04-06T11:58:20;98333.81;;;11.10;31.52
15884;BME280;8040;50.254;10.960;2023-04-06T12:00:46;98375.38;;;11.51;31.13
15884;BME280;8040;50.254;10.960;2023-04-06T12:03:12;98366.84;;;11.71;32.95
15884;BME280;8040;50.254;10.960;2023-04-06T12:05:38;98408.09;;;12.00;30.74
15884;BME280;8040;50.254;10.960;2023-04-06T12:08:03;98361.41;;;11.71;30.46
15884;BME280;8040;50.254;10.960;2023-04-06T12:10:29;98395.09;;;11.97;30.90
15884;BME280;8040;50.254;10.960;2023-04-06T12:15:31;98309.78;;;11.44;30.49
15884;BME280;8040;50.254;10.960;2023-04-06T12:17:56;98332.63;;;11.70;30.77
15884;BME280;8040;50.254;10.960;2023-04-06T12:20:22;98384.47;;;12.09;29.95
15884;BME280;8040;50.254;10.960;2023-04-06T12:22:47;98391.56;;;12.10;30.21
15884;BME280;8040;50.254;10.960;2023-04-06T12:25:13;98350.91;;;11.78;30.15
15884;BME280;8040;50.254;10.960;2023-04-06T12:27:38;98367.84;;;11.88;30.26
15884;BME280;8040;50.254;10.960;2023-04-06T12:30:04;98322.25;;;11.72;30.42
15884;BME280;8040;50.254;10.960;2023-04-06T12:32:30;98339.44;;;11.94;30.41
15884;BME280;8040;50.254;10.960;2023-04-06T12:34:55;98311.47;;;11.80;30.17
15884;BME280;8040;50.254;10.960;2023-04-06T12:37:21;98384.16;;;11.88;28.94
15884;BME280;8040;50.254;10.960;2023-04-06T12:39:46;98320.44;;;11.13;30.17
15884;BME280;8040;50.254;10.960;2023-04-06T12:42:12;98334.13;;;11.35;30.52
15884;BME280;8040;50.254;10.960;2023-04-06T12:44:38;98352.44;;;11.43;30.43
15884;BME280;8040;50.254;10.960;2023-04-06T12:47:04;98346.72;;;11.45;30.57
15884;BME280;8040;50.254;10.960;2023-04-06T12:49:30;98350.50;;;11.57;30.43
15884;BME280;8040;50.254;10.960;2023-04-06T12:51:58;98326.31;;;11.61;30.92
15884;BME280;8040;50.254;10.960;2023-04-06T12:54:23;98341.78;;;11.74;31.16
15884;BME280;8040;50.254;10.960;2023-04-06T12:56:50;98339.56;;;11.76;30.20
15884;BME280;8040;50.254;10.960;2023-04-06T12:59:16;98367.03;;;11.88;30.41
15884;BME280;8040;50.254;10.960;2023-04-06T13:01:41;98295.97;;;11.54;30.53
15884;BME280;8040;50.254;10.960;2023-04-06T13:04:07;98294.41;;;11.66;30.52
15884;BME280;8040;50.254;10.960;2023-04-06T13:06:32;98264.38;;;11.58;30.96
15884;BME280;8040;50.254;10.960;2023-04-06T13:08:58;98302.59;;;11.88;30.90
15884;BME280;8040;50.254;10.960;2023-04-06T13:11:24;98293.16;;;11.86;30.36
15884;BME280;8040;50.254;10.960;2023-04-06T13:13:51;98328.28;;;12.18;29.79
15884;BME280;8040;50.254;10.960;2023-04-06T13:16:16;98343.19;;;12.42;30.03